Time;durP1;ratioP1;P1;durP2;ratioP2;P2;SDS_P1;SDS_P2;PMS_P1;PMS_P2;Temp;Humidity;BMP_temperature;BMP_pressure;BME280_temperature;BME280_humidity;BME280_pressure;Samples;Min_cycle;Max_cycle;Signal;HPM_P1;HPM_P2
2023/04/11 00:01:54;;;;;;;3.30;1.60;;;;;;;;;;5066885;28;20511;-62
2023/04/11 00:04:21;;;;;;;3.90;2.00;;;;;;;;;;5068088;28;20452;-62
2023/04/11 00:06:48;;;;;;;2.67;2.17;;;;;;;;;;5075516;28;20479;-62
2023/04/11 00:09:15;;;;;;;2.37;2.17;;;;;;;;;;5072223;28;20456;-62
2023/04/11 00:11:41;;;;;;;2.00;1.47;;;;;;;;;;5065715;28;20480;-62
2023/04/11 00:14:11;;;;;;;3.20;2.00;;;;;;;;;;5070144;28;20475;-63
2023/04/11 00:16:38;;;;;;;1.83;1.37;;;;;;;;;;5075303;28;20483;-62
2023/04/11 00:19:06;;;;;;;1.80;1.57;;;;;;;;;;5062045;28;20464;-62
2023/04/11 00:21:34;;;;;;;2.60;1.40;;;;;;;;;;5060783;28;20491;-63
2023/04/11 00:24:03;;;;;;;6.90;1.23;;;;;;;;;;5074782;28;20530;-63
2023/04/11 00:26:29;;;;;;;2.20;1.53;;;;;;;;;;5069190;28;20492;-63
2023/04/11 00:28:55;;;;;;;2.80;1.30;;;;;;;;;;5061982;28;20484;-63
2023/04/11 00:31:23;;;;;;;2.03;1.53;;;;;;;;;;5062060;28;20503;-63
2023/04/11 00:33:50;;;;;;;3.10;1.60;;;;;;;;;;5064786;28;20449;-63
2023/04/11 00:36:16;;;;;;;2.07;1.70;;;;;;;;;;5065924;28;20532;-64
2023/04/11 00:38:43;;;;;;;3.63;1.50;;;;;;;;;;5067227;28;20540;-63
2023/04/11 00:41:10;;;;;;;4.50;1.77;;;;;;;;;;5067933;28;20589;-64
2023/04/11 00:43:36;;;;;;;1.77;1.57;;;;;;;;;;5071939;28;20476;-63
2023/04/11 00:46:03;;;;;;;1.97;1.77;;;;;;;;;;5075020;28;20507;-63
2023/04/11 00:48:31;;;;;;;3.87;1.40;;;;;;;;;;5076361;28;20555;-63
2023/04/11 00:50:57;;;;;;;1.93;1.20;;;;;;;;;;5076751;28;20514;-63
2023/04/11 00:53:24;;;;;;;1.43;1.33;;;;;;;;;;5074295;28;20461;-64
2023/04/11 00:55:50;;;;;;;2.20;1.60;;;;;;;;;;5077314;28;20499;-63
2023/04/11 00:58:17;;;;;;;2.53;1.47;;;;;;;;;;5068358;28;20491;-64
2023/04/11 01:00:48;;;;;;;2.67;1.37;;;;;;;;;;5068513;28;20545;-63
2023/04/11 01:03:14;;;;;;;3.40;1.50;;;;;;;;;;5069549;28;20547;-63
2023/04/11 01:05:42;;;;;;;2.90;1.50;;;;;;;;;;5072028;28;20467;-64
2023/04/11 01:08:09;;;;;;;2.10;1.60;;;;;;;;;;5069663;28;20500;-63
2023/04/11 01:10:35;;;;;;;3.57;1.57;;;;;;;;;;5070584;28;20472;-63
2023/04/11 01:13:02;;;;;;;3.97;1.67;;;;;;;;;;5067391;28;20487;-64
2023/04/11 01:15:29;;;;;;;1.97;1.60;;;;;;;;;;5068055;28;20468;-64
2023/04/11 01:17:56;;;;;;;2.50;1.50;;;;;;;;;;5075665;28;20452;-63
2023/04/11 01:20:25;;;;;;;3.10;2.00;;;;;;;;;;5072736;28;20458;-63
2023/04/11 01:22:53;;;;;;;5.93;1.60;;;;;;;;;;5068246;28;20488;-63
2023/04/11 01:25:22;;;;;;;1.67;1.57;;;;;;;;;;5071060;28;20440;-63
2023/04/11 01:27:48;;;;;;;4.33;1.83;;;;;;;;;;5070280;28;20446;-63
2023/04/11 01:30:15;;;;;;;3.47;2.07;;;;;;;;;;5065062;28;20514;-63
2023/04/11 01:32:41;;;;;;;6.63;2.00;;;;;;;;;;5070075;28;20449;-63
2023/04/11 01:35:08;;;;;;;2.23;1.77;;;;;;;;;;5069714;28;20511;-63
2023/04/11 01:37:35;;;;;;;2.50;1.67;;;;;;;;;;5073696;28;20502;-63
2023/04/11 01:40:12;;;;;;;6.00;1.83;;;;;;;;;;5064794;28;20489;-63
2023/04/11 01:42:40;;;;;;;4.33;2.43;;;;;;;;;;5063064;28;20496;-64
2023/04/11 01:45:07;;;;;;;2.77;1.80;;;;;;;;;;5068572;28;20441;-64
2023/04/11 01:47:34;;;;;;;4.30;1.77;;;;;;;;;;5072077;28;20449;-63
2023/04/11 01:50:00;;;;;;;3.90;1.70;;;;;;;;;;5066475;28;20465;-64
2023/04/11 01:52:27;;;;;;;3.70;1.70;;;;;;;;;;5066184;28;20527;-63
2023/04/11 01:54:53;;;;;;;3.07;1.77;;;;;;;;;;5067627;28;20483;-63
2023/04/11 01:57:20;;;;;;;4.47;1.80;;;;;;;;;;5066642;28;20861;-63
2023/04/11 01:59:47;;;;;;;2.73;1.57;;;;;;;;;;5071448;28;20478;-63
2023/04/11 02:02:14;;;;;;;8.93;1.83;;;;;;;;;;5073893;28;20526;-63
2023/04/11 02:04:40;;;;;;;2.50;1.50;;;;;;;;;;5078646;28;20493;-63
2023/04/11 02:07:07;;;;;;;5.23;2.30;;;;;;;;;;5073958;28;20503;-63
2023/04/11 02:09:33;;;;;;;6.60;1.60;;;;;;;;;;5068819;28;20462;-63
2023/04/11 02:12:00;;;;;;;4.00;1.80;;;;;;;;;;5071114;28;20500;-63
2023/04/11 02:14:28;;;;;;;3.23;2.23;;;;;;;;;;5078122;28;20517;-63
2023/04/11 02:16:56;;;;;;;3.93;2.30;;;;;;;;;;5074448;28;20511;-64
2023/04/11 02:19:24;;;;;;;4.07;1.70;;;;;;;;;;5074966;28;20988;-64
2023/04/11 02:21:51;;;;;;;3.70;2.10;;;;;;;;;;5067232;28;20477;-64
2023/04/11 02:24:17;;;;;;;5.40;2.27;;;;;;;;;;5065826;28;20481;-63
2023/04/11 02:26:44;;;;;;;4.13;2.07;;;;;;;;;;5063787;28;20508;-64
2023/04/11 02:29:10;;;;;;;4.37;2.37;;;;;;;;;;5066990;28;20449;-64
2023/04/11 02:31:38;;;;;;;4.63;2.23;;;;;;;;;;5066489;28;20530;-63
2023/04/11 02:34:05;;;;;;;5.00;2.70;;;;;;;;;;5076401;28;20472;-63
2023/04/11 02:36:32;;;;;;;5.30;2.40;;;;;;;;;;5072688;28;20556;-63
2023/04/11 02:38:59;;;;;;;6.27;2.63;;;;;;;;;;5065990;28;20480;-63
2023/04/11 02:41:26;;;;;;;5.13;2.40;;;;;;;;;;5068948;28;20510;-63
2023/04/11 02:43:52;;;;;;;3.93;2.37;;;;;;;;;;5065551;28;20516;-63
2023/04/11 02:46:33;;;;;;;5.90;2.50;;;;;;;;;;5062147;28;20473;-63
2023/04/11 02:48:59;;;;;;;5.80;2.80;;;;;;;;;;5067698;28;20479;-64
2023/04/11 02:51:27;;;;;;;5.77;2.70;;;;;;;;;;5075843;28;20472;-63
2023/04/11 02:53:53;;;;;;;6.40;2.57;;;;;;;;;;5064773;28;20456;-63
2023/04/11 02:56:20;;;;;;;11.43;2.80;;;;;;;;;;5078102;28;20472;-63
2023/04/11 02:58:46;;;;;;;6.03;3.07;;;;;;;;;;5063998;28;20460;-63
2023/04/11 03:01:15;;;;;;;6.20;3.23;;;;;;;;;;5067196;28;20539;-63
2023/04/11 03:03:42;;;;;;;7.10;3.00;;;;;;;;;;5073113;28;20484;-63
2023/04/11 03:06:09;;;;;;;5.07;2.47;;;;;;;;;;5070577;28;20496;-64
2023/04/11 03:08:37;;;;;;;9.73;3.07;;;;;;;;;;5068576;28;20481;-63
2023/04/11 03:11:03;;;;;;;5.50;3.30;;;;;;;;;;5061782;28;20465;-63
2023/04/11 03:13:30;;;;;;;6.50;2.57;;;;;;;;;;5065681;28;20530;-63
2023/04/11 03:15:56;;;;;;;8.37;3.00;;;;;;;;;;5078936;28;20572;-63
2023/04/11 03:18:23;;;;;;;6.13;3.73;;;;;;;;;;5067392;28;20486;-63
2023/04/11 03:20:49;;;;;;;5.17;3.43;;;;;;;;;;5067758;28;20500;-63
2023/04/11 03:23:16;;;;;;;7.57;3.70;;;;;;;;;;5068901;28;20524;-63
2023/04/11 03:25:44;;;;;;;4.77;3.30;;;;;;;;;;5067293;28;20488;-64
2023/04/11 03:28:10;;;;;;;8.40;3.27;;;;;;;;;;5072844;28;20559;-63
2023/04/11 03:30:39;;;;;;;7.13;3.97;;;;;;;;;;5069006;28;20564;-63
2023/04/11 03:33:05;;;;;;;11.70;3.77;;;;;;;;;;5062810;28;20461;-62
2023/04/11 03:35:32;;;;;;;9.80;4.20;;;;;;;;;;5063985;28;20528;-63
2023/04/11 03:37:58;;;;;;;7.63;3.73;;;;;;;;;;5069628;28;20965;-64
2023/04/11 03:40:24;;;;;;;4.40;3.13;;;;;;;;;;5063817;28;20516;-63
2023/04/11 03:42:52;;;;;;;8.50;3.63;;;;;;;;;;5069614;28;20531;-63
2023/04/11 03:45:19;;;;;;;8.40;3.50;;;;;;;;;;5072614;28;20508;-63
2023/04/11 03:47:45;;;;;;;10.60;3.33;;;;;;;;;;5061434;28;20859;-63
2023/04/11 03:50:11;;;;;;;12.73;3.87;;;;;;;;;;5062425;28;20476;-63
2023/04/11 03:52:38;;;;;;;7.17;5.17;;;;;;;;;;5064848;28;20529;-63
2023/04/11 03:55:05;;;;;;;10.47;3.77;;;;;;;;;;5073829;28;20455;-63
2023/04/11 03:57:31;;;;;;;12.10;3.50;;;;;;;;;;5071881;28;20953;-64
2023/04/11 03:59:59;;;;;;;10.10;3.80;;;;;;;;;;5070593;28;20472;-64
2023/04/11 04:02:26;;;;;;;11.00;3.73;;;;;;;;;;5067772;28;20488;-64
2023/04/11 04:04:57;;;;;;;10.20;4.37;;;;;;;;;;5070472;28;20522;-64
2023/04/11 04:07:23;;;;;;;9.57;3.97;;;;;;;;;;5068908;28;20485;-64
2023/04/11 04:09:49;;;;;;;7.97;4.00;;;;;;;;;;5069864;28;20467;-64
2023/04/11 04:12:16;;;;;;;9.17;4.23;;;;;;;;;;5066620;28;20512;-64
2023/04/11 04:14:43;;;;;;;6.73;3.70;;;;;;;;;;5064769;28;20443;-62
2023/04/11 04:17:10;;;;;;;13.13;4.77;;;;;;;;;;5072564;28;20554;-63
2023/04/11 04:19:37;;;;;;;11.70;5.20;;;;;;;;;;5065856;28;20476;-63
2023/04/11 04:22:04;;;;;;;10.93;4.67;;;;;;;;;;5063403;28;20481;-63
2023/04/11 04:24:36;;;;;;;13.30;5.00;;;;;;;;;;5069619;28;20483;-63
2023/04/11 04:27:07;;;;;;;17.83;6.70;;;;;;;;;;5064446;28;20550;-63
2023/04/11 04:29:37;;;;;;;14.50;5.83;;;;;;;;;;5063142;28;20449;-63
2023/04/11 04:32:09;;;;;;;15.43;5.93;;;;;;;;;;5063801;28;20484;-63
2023/04/11 04:34:37;;;;;;;12.63;5.70;;;;;;;;;;5061512;28;20483;-63
2023/04/11 04:37:04;;;;;;;16.70;7.00;;;;;;;;;;5060410;28;20518;-64
2023/04/11 04:39:32;;;;;;;15.10;6.70;;;;;;;;;;5062341;28;20487;-63
2023/04/11 04:41:59;;;;;;;12.20;5.93;;;;;;;;;;5060632;28;20568;-64
2023/04/11 04:44:25;;;;;;;19.80;6.17;;;;;;;;;;5067034;28;20481;-63
2023/04/11 04:46:53;;;;;;;18.07;5.77;;;;;;;;;;5073716;28;20534;-63
2023/04/11 04:49:19;;;;;;;14.93;6.30;;;;;;;;;;5070581;28;20610;-64
2023/04/11 04:51:47;;;;;;;20.00;6.60;;;;;;;;;;5074519;28;20498;-64
2023/04/11 04:54:14;;;;;;;18.10;6.60;;;;;;;;;;5071515;28;20463;-63
2023/04/11 04:56:41;;;;;;;16.87;7.23;;;;;;;;;;5075863;28;20539;-63
2023/04/11 04:59:13;;;;;;;21.97;6.63;;;;;;;;;;5075124;28;20452;-64
2023/04/11 05:01:39;;;;;;;19.73;7.03;;;;;;;;;;5078286;28;20480;-63
2023/04/11 05:04:06;;;;;;;19.90;6.97;;;;;;;;;;5071654;28;20540;-63
2023/04/11 05:06:32;;;;;;;20.40;7.40;;;;;;;;;;5063575;28;20491;-63
2023/04/11 05:09:00;;;;;;;24.97;7.47;;;;;;;;;;5070562;28;20546;-64
2023/04/11 05:11:27;;;;;;;12.93;6.03;;;;;;;;;;5061884;28;20515;-64
2023/04/11 05:13:53;;;;;;;19.60;6.30;;;;;;;;;;5065840;28;20534;-63
2023/04/11 05:16:20;;;;;;;21.77;7.30;;;;;;;;;;5064629;28;20496;-63
2023/04/11 05:18:48;;;;;;;19.13;6.37;;;;;;;;;;5064777;28;20464;-64
2023/04/11 05:21:15;;;;;;;12.30;6.20;;;;;;;;;;5070689;28;20496;-63
2023/04/11 05:23:41;;;;;;;25.37;6.93;;;;;;;;;;5062370;28;20870;-64
2023/04/11 05:26:10;;;;;;;22.40;6.50;;;;;;;;;;5067560;28;20595;-64
2023/04/11 05:28:36;;;;;;;17.77;7.00;;;;;;;;;;5077441;28;20458;-66
2023/04/11 05:31:03;;;;;;;22.43;6.80;;;;;;;;;;5074516;28;20515;-64
2023/04/11 05:33:29;;;;;;;16.20;7.50;;;;;;;;;;5068296;28;20518;-64
2023/04/11 05:35:56;;;;;;;13.07;4.90;;;;;;;;;;5071315;28;20468;-64
2023/04/11 05:38:22;;;;;;;3.93;2.13;;;;;;;;;;5064413;28;20492;-64
2023/04/11 05:40:49;;;;;;;3.43;1.80;;;;;;;;;;5072714;28;20568;-64
2023/04/11 05:43:16;;;;;;;4.50;2.73;;;;;;;;;;5073597;28;20486;-64
2023/04/11 05:45:46;;;;;;;3.83;2.10;;;;;;;;;;5065849;28;20492;-65
2023/04/11 05:48:12;;;;;;;7.43;2.00;;;;;;;;;;5062280;28;20483;-65
2023/04/11 05:50:39;;;;;;;6.93;2.23;;;;;;;;;;5064287;28;20464;-63
2023/04/11 05:53:05;;;;;;;3.60;1.50;;;;;;;;;;5062952;28;20475;-64
2023/04/11 05:55:32;;;;;;;5.67;1.83;;;;;;;;;;5064358;28;20457;-63
2023/04/11 05:57:58;;;;;;;2.77;1.33;;;;;;;;;;5063942;28;20565;-63
2023/04/11 06:00:29;;;;;;;1.83;1.10;;;;;;;;;;5080625;28;20482;-64
2023/04/11 06:02:56;;;;;;;6.70;1.50;;;;;;;;;;5066996;28;20512;-63
2023/04/11 06:05:24;;;;;;;4.80;1.77;;;;;;;;;;5067326;28;20523;-64
2023/04/11 06:07:50;;;;;;;2.97;1.70;;;;;;;;;;5070229;28;20453;-64
2023/04/11 06:10:17;;;;;;;3.77;1.70;;;;;;;;;;5072607;28;20528;-63
2023/04/11 06:12:43;;;;;;;3.27;1.60;;;;;;;;;;5063894;28;20476;-65
2023/04/11 06:15:12;;;;;;;5.57;3.37;;;;;;;;;;5064842;28;20528;-66
2023/04/11 06:17:40;;;;;;;7.50;2.00;;;;;;;;;;5063130;28;20478;-65
2023/04/11 06:20:07;;;;;;;7.83;2.33;;;;;;;;;;5063882;28;20507;-65
2023/04/11 06:22:33;;;;;;;5.40;1.83;;;;;;;;;;5073195;28;20448;-65
2023/04/11 06:25:00;;;;;;;7.50;1.83;;;;;;;;;;5067925;28;20503;-65
2023/04/11 06:27:26;;;;;;;3.67;2.10;;;;;;;;;;5071972;28;20575;-65
2023/04/11 06:29:53;;;;;;;6.80;2.00;;;;;;;;;;5076536;28;20452;-65
2023/04/11 06:32:19;;;;;;;2.60;1.87;;;;;;;;;;5062948;28;20541;-65
2023/04/11 06:34:47;;;;;;;3.23;1.43;;;;;;;;;;5062562;28;20506;-65
2023/04/11 06:37:15;;;;;;;1.83;1.63;;;;;;;;;;5070920;28;20473;-64
2023/04/11 06:39:41;;;;;;;3.47;1.20;;;;;;;;;;5063730;28;20464;-65
2023/04/11 06:42:07;;;;;;;2.00;1.30;;;;;;;;;;5071920;28;20507;-65
2023/04/11 06:44:34;;;;;;;1.83;1.20;;;;;;;;;;5069078;28;20504;-65
2023/04/11 06:47:01;;;;;;;2.20;1.00;;;;;;;;;;5063885;28;20488;-65
2023/04/11 06:49:28;;;;;;;2.80;1.30;;;;;;;;;;5062850;28;20774;-65
2023/04/11 06:51:55;;;;;;;1.47;1.00;;;;;;;;;;5078285;28;20491;-65
2023/04/11 06:54:22;;;;;;;5.33;1.57;;;;;;;;;;5066234;28;20845;-65
2023/04/11 06:56:49;;;;;;;4.30;1.20;;;;;;;;;;5067165;28;20476;-65
2023/04/11 06:59:18;;;;;;;2.80;1.10;;;;;;;;;;5067352;28;20467;-66
2023/04/11 07:01:44;;;;;;;3.60;0.90;;;;;;;;;;5067009;28;20476;-65
2023/04/11 07:04:11;;;;;;;1.80;1.17;;;;;;;;;;5061504;28;20460;-65
2023/04/11 07:06:38;;;;;;;4.70;1.70;;;;;;;;;;5071540;28;20479;-66
2023/04/11 07:09:06;;;;;;;4.03;1.80;;;;;;;;;;5065615;28;20488;-65
2023/04/11 07:11:32;;;;;;;5.60;1.70;;;;;;;;;;5061286;28;20473;-65
2023/04/11 07:13:59;;;;;;;6.20;1.70;;;;;;;;;;5072129;28;20971;-66
2023/04/11 07:16:26;;;;;;;5.57;3.20;;;;;;;;;;5061714;28;20579;-65
2023/04/11 07:18:53;;;;;;;3.70;1.93;;;;;;;;;;5074586;28;20832;-65
2023/04/11 07:21:19;;;;;;;4.70;2.40;;;;;;;;;;5066137;28;20492;-65
2023/04/11 07:23:46;;;;;;;9.87;4.10;;;;;;;;;;5068001;28;21049;-65
2023/04/11 07:26:15;;;;;;;5.40;2.57;;;;;;;;;;5062359;28;20555;-65
2023/04/11 07:28:43;;;;;;;6.10;2.73;;;;;;;;;;5066264;28;20441;-64
2023/04/11 07:31:09;;;;;;;6.70;3.10;;;;;;;;;;5069229;28;20899;-64
2023/04/11 07:33:36;;;;;;;6.10;2.37;;;;;;;;;;5063899;28;20488;-64
2023/04/11 07:36:03;;;;;;;4.23;2.70;;;;;;;;;;5063633;28;21022;-64
2023/04/11 07:38:30;;;;;;;4.97;2.27;;;;;;;;;;5061740;28;20481;-65
2023/04/11 07:40:56;;;;;;;8.97;2.53;;;;;;;;;;5062685;28;20491;-65
2023/04/11 07:43:24;;;;;;;8.97;2.60;;;;;;;;;;5059453;28;20456;-64
2023/04/11 07:45:51;;;;;;;6.13;2.40;;;;;;;;;;5060656;28;20535;-64
2023/04/11 07:48:17;;;;;;;8.47;2.77;;;;;;;;;;5060529;28;20449;-64
2023/04/11 07:50:43;;;;;;;4.73;2.47;;;;;;;;;;5067048;28;20934;-64
2023/04/11 07:53:10;;;;;;;5.53;2.30;;;;;;;;;;5062611;28;20568;-64
2023/04/11 07:55:36;;;;;;;5.50;2.40;;;;;;;;;;5059438;28;20492;-64
2023/04/11 07:58:03;;;;;;;9.57;2.47;;;;;;;;;;5062077;28;21111;-64
2023/04/11 08:00:31;;;;;;;4.13;1.87;;;;;;;;;;5071537;28;20492;-64
2023/04/11 08:03:01;;;;;;;3.60;2.00;;;;;;;;;;5058316;28;20480;-65
2023/04/11 08:05:29;;;;;;;3.73;1.83;;;;;;;;;;5060161;28;20477;-64
2023/04/11 08:07:56;;;;;;;3.80;2.20;;;;;;;;;;5067691;28;20452;-64
2023/04/11 08:10:22;;;;;;;7.67;1.77;;;;;;;;;;5070340;28;20460;-65
2023/04/11 08:12:49;;;;;;;6.20;2.40;;;;;;;;;;5060149;28;20476;-64
2023/04/11 08:15:15;;;;;;;8.90;2.70;;;;;;;;;;5059199;28;20476;-64
2023/04/11 08:17:44;;;;;;;4.70;2.43;;;;;;;;;;5061973;28;20480;-64
2023/04/11 08:20:11;;;;;;;6.97;2.60;;;;;;;;;;5060004;28;20457;-64
2023/04/11 08:22:41;;;;;;;8.63;2.83;;;;;;;;;;5061727;28;20456;-65
2023/04/11 08:25:08;;;;;;;8.77;2.60;;;;;;;;;;5060177;28;20949;-65
2023/04/11 08:27:34;;;;;;;8.80;2.53;;;;;;;;;;5064053;28;20480;-64
2023/04/11 08:30:01;;;;;;;6.60;2.80;;;;;;;;;;5059826;28;20441;-65
2023/04/11 08:32:27;;;;;;;6.00;2.30;;;;;;;;;;5059558;28;20961;-64
2023/04/11 08:34:55;;;;;;;8.13;2.83;;;;;;;;;;5060219;28;20999;-64
2023/04/11 08:37:21;;;;;;;3.97;2.13;;;;;;;;;;5065607;28;21405;-64
2023/04/11 08:39:48;;;;;;;10.10;2.70;;;;;;;;;;5066144;28;20457;-64
2023/04/11 08:42:21;;;;;;;4.90;2.80;;;;;;;;;;5058661;28;20496;-64
2023/04/11 08:44:50;;;;;;;6.90;2.33;;;;;;;;;;5066832;28;20508;-65
2023/04/11 08:47:16;;;;;;;5.63;2.03;;;;;;;;;;5060976;28;20510;-64
2023/04/11 08:49:43;;;;;;;4.67;1.93;;;;;;;;;;5066283;28;20448;-64
2023/04/11 08:52:10;;;;;;;5.43;2.00;;;;;;;;;;5060581;28;20508;-64
2023/04/11 08:54:37;;;;;;;5.60;2.60;;;;;;;;;;5064296;28;20614;-64
2023/04/11 08:57:03;;;;;;;5.10;2.60;;;;;;;;;;5065231;28;20536;-64
2023/04/11 08:59:30;;;;;;;4.53;1.57;;;;;;;;;;5067483;28;20445;-64
2023/04/11 09:02:05;;;;;;;6.40;2.20;;;;;;;;;;5058892;28;20476;-64
2023/04/11 09:04:39;;;;;;;6.13;1.53;;;;;;;;;;5065720;28;20467;-70
2023/04/11 09:07:06;;;;;;;3.70;1.53;;;;;;;;;;5060844;28;20857;-70
2023/04/11 09:09:35;;;;;;;3.83;1.30;;;;;;;;;;5051144;28;20996;-70
2023/04/11 09:12:02;;;;;;;5.57;1.63;;;;;;;;;;5065469;28;20479;-70
2023/04/11 09:14:29;;;;;;;5.23;2.00;;;;;;;;;;5067510;28;20456;-71
2023/04/11 09:16:58;;;;;;;3.50;1.23;;;;;;;;;;5062337;28;20514;-70
2023/04/11 09:19:25;;;;;;;2.33;1.23;;;;;;;;;;5064973;28;20471;-70
2023/04/11 09:21:51;;;;;;;4.10;1.37;;;;;;;;;;5061624;28;20491;-70
2023/04/11 09:24:18;;;;;;;5.67;1.40;;;;;;;;;;5069993;28;20525;-70
2023/04/11 09:26:45;;;;;;;3.10;1.27;;;;;;;;;;5064801;28;20479;-69
2023/04/11 09:29:20;;;;;;;3.40;1.40;;;;;;;;;;5068067;28;20923;-70
2023/04/11 09:31:47;;;;;;;5.60;1.13;;;;;;;;;;5070673;28;20476;-69
2023/04/11 09:34:13;;;;;;;5.33;1.70;;;;;;;;;;5063062;28;20456;-68
2023/04/11 09:36:39;;;;;;;3.40;0.90;;;;;;;;;;5057944;28;20603;-69
2023/04/11 09:39:16;;;;;;;4.83;1.23;;;;;;;;;;5062732;28;20483;-69
2023/04/11 09:41:43;;;;;;;3.47;1.03;;;;;;;;;;5061508;28;21004;-69
2023/04/11 09:44:10;;;;;;;7.83;1.23;;;;;;;;;;5067684;28;20452;-69
2023/04/11 09:46:37;;;;;;;3.73;2.40;;;;;;;;;;5064667;28;20492;-69
2023/04/11 09:49:03;;;;;;;3.37;1.10;;;;;;;;;;5061672;28;20471;-68
2023/04/11 09:51:30;;;;;;;3.40;1.10;;;;;;;;;;5063711;28;20512;-68
2023/04/11 09:53:57;;;;;;;2.03;1.00;;;;;;;;;;5063980;28;20520;-68
2023/04/11 09:56:25;;;;;;;6.00;1.10;;;;;;;;;;5065723;28;20500;-69
2023/04/11 09:58:52;;;;;;;3.50;1.20;;;;;;;;;;5065527;28;20802;-68
2023/04/11 10:01:20;;;;;;;3.57;1.20;;;;;;;;;;5061439;28;20504;-68
2023/04/11 10:03:49;;;;;;;3.20;1.10;;;;;;;;;;5062320;28;20452;-70
2023/04/11 10:06:19;;;;;;;2.93;1.30;;;;;;;;;;5063864;28;20860;-70
2023/04/11 10:08:46;;;;;;;5.37;1.50;;;;;;;;;;5067413;28;20468;-70
2023/04/11 10:11:14;;;;;;;2.97;0.93;;;;;;;;;;5060240;28;20502;-72
2023/04/11 10:13:41;;;;;;;3.37;0.87;;;;;;;;;;5064389;28;20525;-72
2023/04/11 10:16:08;;;;;;;3.53;1.23;;;;;;;;;;5069837;28;20903;-70
2023/04/11 10:18:36;;;;;;;4.40;1.50;;;;;;;;;;5065159;28;20459;-70
2023/04/11 10:21:04;;;;;;;3.50;1.13;;;;;;;;;;5063412;28;20555;-70
2023/04/11 10:23:50;;;;;;;4.37;1.63;;;;;;;;;;5061612;28;20453;-70
2023/04/11 10:26:16;;;;;;;5.60;1.43;;;;;;;;;;5060668;28;21037;-70
2023/04/11 10:28:43;;;;;;;2.57;1.10;;;;;;;;;;5062500;28;20445;-70
2023/04/11 10:31:12;;;;;;;5.77;1.93;;;;;;;;;;5068397;28;20472;-70
2023/04/11 10:34:00;;;;;;;7.50;1.40;;;;;;;;;;5063280;28;20457;-70
2023/04/11 10:36:26;;;;;;;4.50;1.70;;;;;;;;;;5059875;28;20481;-70
2023/04/11 10:38:53;;;;;;;7.00;1.23;;;;;;;;;;5068147;28;20482;-70
2023/04/11 10:41:30;;;;;;;4.33;1.53;;;;;;;;;;5060447;28;20513;-70
2023/04/11 10:44:17;;;;;;;5.60;1.77;;;;;;;;;;5056048;28;20525;-71
2023/04/11 10:46:44;;;;;;;3.10;1.40;;;;;;;;;;5059924;28;20576;-69
2023/04/11 10:49:12;;;;;;;3.10;1.50;;;;;;;;;;5065988;28;20459;-76
2023/04/11 10:51:38;;;;;;;8.80;1.70;;;;;;;;;;5061473;28;20484;-76
2023/04/11 10:54:05;;;;;;;8.17;2.00;;;;;;;;;;5062347;28;20517;-81
2023/04/11 10:56:55;;;;;;;8.73;1.43;;;;;;;;;;5059283;28;20507;-76
2023/04/11 10:59:40;;;;;;;5.70;1.50;;;;;;;;;;5047282;28;20497;-76
2023/04/11 11:02:06;;;;;;;6.73;2.33;;;;;;;;;;5063049;28;20501;-77
2023/04/11 11:04:35;;;;;;;6.50;1.70;;;;;;;;;;5061752;28;21011;-80
2023/04/11 11:07:02;;;;;;;4.70;2.10;;;;;;;;;;5062542;28;20499;-77
2023/04/11 11:09:29;;;;;;;6.10;1.70;;;;;;;;;;5062335;28;20524;-79
2023/04/11 11:12:05;;;;;;;6.80;2.40;;;;;;;;;;5060440;28;20557;-79
2023/04/11 11:14:32;;;;;;;3.80;1.90;;;;;;;;;;5060515;28;20445;-79
2023/04/11 11:16:58;;;;;;;7.63;1.50;;;;;;;;;;5064954;28;20567;-79
2023/04/11 11:19:25;;;;;;;4.43;1.63;;;;;;;;;;5065096;28;20473;-78
2023/04/11 11:21:53;;;;;;;2.77;1.73;;;;;;;;;;5064307;28;20484;-77
2023/04/11 11:24:24;;;;;;;4.43;1.70;;;;;;;;;;5068002;28;20487;-77
2023/04/11 11:26:50;;;;;;;4.27;2.10;;;;;;;;;;5063471;28;20476;-76
2023/04/11 11:29:18;;;;;;;4.70;2.00;;;;;;;;;;5059957;28;20452;-80
2023/04/11 11:31:45;;;;;;;6.47;2.47;;;;;;;;;;5064368;28;20576;-78
2023/04/11 11:34:12;;;;;;;6.40;1.70;;;;;;;;;;5060059;28;20460;-79
2023/04/11 11:36:39;;;;;;;3.77;2.10;;;;;;;;;;5060449;28;20563;-76
2023/04/11 11:39:07;;;;;;;9.93;3.40;;;;;;;;;;5061305;28;20456;-76
2023/04/11 11:41:34;;;;;;;3.17;1.77;;;;;;;;;;5063709;28;20473;-79
2023/04/11 11:44:01;;;;;;;6.80;2.67;;;;;;;;;;5061483;28;20469;-78
2023/04/11 11:46:29;;;;;;;4.83;2.30;;;;;;;;;;5075163;28;20518;-75
2023/04/11 11:48:59;;;;;;;5.70;2.10;;;;;;;;;;5073032;28;20953;-79
2023/04/11 11:51:26;;;;;;;8.83;3.10;;;;;;;;;;5058710;28;20491;-77
2023/04/11 11:54:03;;;;;;;7.40;1.67;;;;;;;;;;5059830;28;20703;-77
2023/04/11 11:56:31;;;;;;;8.67;2.20;;;;;;;;;;5069091;28;20552;-77
2023/04/11 11:58:57;;;;;;;8.37;2.60;;;;;;;;;;5063839;28;20456;-80
2023/04/11 12:01:24;;;;;;;5.40;2.00;;;;;;;;;;5060768;28;20496;-79
2023/04/11 12:03:52;;;;;;;6.10;1.60;;;;;;;;;;5059885;28;20469;-80
2023/04/11 12:06:18;;;;;;;4.13;1.73;;;;;;;;;;5053139;28;20483;-77
2023/04/11 12:08:49;;;;;;;9.90;1.97;;;;;;;;;;5062610;28;20460;-77
2023/04/11 12:11:15;;;;;;;7.87;1.93;;;;;;;;;;5065372;28;20492;-77
2023/04/11 12:13:44;;;;;;;7.63;1.93;;;;;;;;;;5067795;28;20753;-75
2023/04/11 12:16:12;;;;;;;5.00;2.27;;;;;;;;;;5059678;28;20554;-77
2023/04/11 12:18:41;;;;;;;4.60;2.00;;;;;;;;;;5066293;28;20488;-77
2023/04/11 12:21:07;;;;;;;5.60;2.27;;;;;;;;;;5057632;28;20484;-75
2023/04/11 12:23:34;;;;;;;6.77;1.80;;;;;;;;;;5060350;28;20554;-76
2023/04/11 12:26:00;;;;;;;5.70;1.47;;;;;;;;;;5058946;28;20491;-78
2023/04/11 12:28:27;;;;;;;6.17;1.30;;;;;;;;;;5062354;28;20537;-76
2023/04/11 12:30:55;;;;;;;4.83;2.03;;;;;;;;;;5057912;28;20503;-80
2023/04/11 12:33:22;;;;;;;3.60;1.60;;;;;;;;;;5061281;28;20465;-76
2023/04/11 12:35:48;;;;;;;5.30;1.47;;;;;;;;;;5069665;28;20483;-78
2023/04/11 12:38:15;;;;;;;5.93;1.70;;;;;;;;;;5062801;28;20457;-77
2023/04/11 12:40:41;;;;;;;4.50;1.50;;;;;;;;;;5056021;28;20472;-78
2023/04/11 12:43:07;;;;;;;9.40;1.80;;;;;;;;;;5062354;28;20492;-77
2023/04/11 12:45:34;;;;;;;10.03;2.50;;;;;;;;;;5063476;28;20488;-77
2023/04/11 12:48:02;;;;;;;4.57;1.30;;;;;;;;;;5057147;28;21152;-77
2023/04/11 12:50:28;;;;;;;3.33;1.63;;;;;;;;;;5062594;28;20538;-78
2023/04/11 12:52:54;;;;;;;2.20;1.50;;;;;;;;;;5061541;28;20555;-76
2023/04/11 12:55:21;;;;;;;5.90;1.90;;;;;;;;;;5064174;28;20459;-76
2023/04/11 12:57:47;;;;;;;6.20;1.87;;;;;;;;;;5064772;28;20452;-77
2023/04/11 13:00:15;;;;;;;3.30;1.20;;;;;;;;;;5060339;28;20468;-77
2023/04/11 13:02:42;;;;;;;4.07;1.23;;;;;;;;;;5062094;28;20495;-76
2023/04/11 13:05:12;;;;;;;3.47;1.13;;;;;;;;;;5066406;28;20455;-78
2023/04/11 13:07:39;;;;;;;9.37;1.53;;;;;;;;;;5062043;28;20480;-77
2023/04/11 13:10:06;;;;;;;4.43;1.80;;;;;;;;;;5058776;28;20467;-77
2023/04/11 13:12:38;;;;;;;4.93;1.30;;;;;;;;;;5057763;28;21347;-77
2023/04/11 13:15:05;;;;;;;3.63;1.47;;;;;;;;;;5056560;28;20456;-77
2023/04/11 13:17:31;;;;;;;2.90;1.00;;;;;;;;;;5053708;28;20477;-77
2023/04/11 13:19:58;;;;;;;2.03;0.87;;;;;;;;;;5062990;28;20488;-78
2023/04/11 13:22:26;;;;;;;6.17;1.40;;;;;;;;;;5068360;28;20489;-77
2023/04/11 13:24:52;;;;;;;6.80;1.30;;;;;;;;;;5058937;28;20468;-77
2023/04/11 13:27:18;;;;;;;6.57;1.47;;;;;;;;;;5060464;28;20524;-76
2023/04/11 13:29:45;;;;;;;5.83;1.93;;;;;;;;;;5063158;28;20495;-77
2023/04/11 13:32:11;;;;;;;4.93;1.50;;;;;;;;;;5064530;28;20496;-77
2023/04/11 13:34:38;;;;;;;4.23;1.23;;;;;;;;;;5061850;28;20492;-77
2023/04/11 13:37:04;;;;;;;4.20;1.40;;;;;;;;;;5061750;28;20504;-78
2023/04/11 13:39:32;;;;;;;2.73;1.20;;;;;;;;;;5060352;28;20540;-77
2023/04/11 13:41:58;;;;;;;6.83;1.10;;;;;;;;;;4973302;28;20906;-77
2023/04/11 13:44:25;;;;;;;2.37;1.10;;;;;;;;;;5062058;28;20499;-78
2023/04/11 13:46:51;;;;;;;3.80;1.60;;;;;;;;;;5059924;28;20551;-78
2023/04/11 13:49:18;;;;;;;2.87;1.10;;;;;;;;;;5064989;28;20455;-78
2023/04/11 13:51:44;;;;;;;2.20;0.87;;;;;;;;;;5061580;28;20485;-78
2023/04/11 13:54:11;;;;;;;4.90;1.07;;;;;;;;;;5056221;28;20477;-77
2023/04/11 13:56:39;;;;;;;3.87;0.87;;;;;;;;;;5057866;28;20508;-78
2023/04/11 13:59:05;;;;;;;2.67;0.90;;;;;;;;;;5061648;28;20955;-78
2023/04/11 14:01:32;;;;;;;2.40;0.80;;;;;;;;;;5055627;28;20505;-72
2023/04/11 14:03:58;;;;;;;1.83;0.90;;;;;;;;;;5060556;28;20540;-74
2023/04/11 14:06:25;;;;;;;3.83;1.17;;;;;;;;;;5067030;28;20492;-73
2023/04/11 14:08:51;;;;;;;1.93;1.07;;;;;;;;;;5061268;28;20487;-74
2023/04/11 14:11:18;;;;;;;2.87;1.13;;;;;;;;;;5058903;28;20511;-73
2023/04/11 14:13:46;;;;;;;2.83;1.07;;;;;;;;;;5065432;28;20483;-74
2023/04/11 14:16:12;;;;;;;2.57;0.87;;;;;;;;;;5071976;28;20489;-73
2023/04/11 14:18:38;;;;;;;2.70;1.30;;;;;;;;;;5056420;28;20445;-73
2023/04/11 14:21:06;;;;;;;2.50;1.03;;;;;;;;;;5059912;28;20504;-73
2023/04/11 14:23:32;;;;;;;5.43;1.03;;;;;;;;;;5049285;28;20904;-81
2023/04/11 14:25:58;;;;;;;2.20;0.70;;;;;;;;;;5055093;28;20475;-77
2023/04/11 14:28:25;;;;;;;3.73;1.50;;;;;;;;;;5058450;28;20506;-79
2023/04/11 14:30:53;;;;;;;4.50;1.20;;;;;;;;;;5053859;28;20484;-75
2023/04/11 14:33:20;;;;;;;3.77;1.10;;;;;;;;;;5058399;28;20518;-75
2023/04/11 14:35:46;;;;;;;5.40;1.67;;;;;;;;;;5053646;28;20481;-74
2023/04/11 14:38:14;;;;;;;4.40;1.00;;;;;;;;;;5058229;28;20457;-74
2023/04/11 14:40:40;;;;;;;3.70;1.40;;;;;;;;;;5053983;28;20476;-74
2023/04/11 14:43:07;;;;;;;3.20;1.10;;;;;;;;;;5058276;28;20457;-73